Latest Weather Observations for Parawa West

IDS60901

Issued at 9:21 pm CDT Friday 13 December 2019 (issued every 10 minutes, with the page automatically refreshed every 10 minutes)

About weather observations | Map of Adelaide area stations | Latest observations for Adelaide area | Other Formats
Station Details ID: 023875 Name: SECOND VALLEY FOREST AWS Lat: -35.57 Lon: 138.29 Height: 341.0 m
Data from the previous 72 hours. | See also: Recent months at Parawa West
Date/Time
CDT
Temp
°C
App
Temp
°C
Dew
Point
°C
Rel
Hum
%
Delta-T
°C
Wind Press
QNH
hPa
Press
MSL
hPa
Rain since
9am
mm
Dir  Spd
km/h
Gust
km/h
Spd
kts
Gust
kts
13/09:00pm 12.1 7.9 9.7 85 1.2 S 22 33 12 18 1020.6 1019.8 0.0
13/08:30pm 12.2 8.0 9.8 85 1.2 S 22 32 12 17 1020.6 1019.8 0.0
13/08:00pm 12.5 8.4 10.0 85 1.3 S 22 33 12 18 1020.8 1020.0 0.0
13/07:30pm 12.8 8.4 10.3 85 1.3 S 24 30 13 16 1020.6 1019.8 0.0
13/07:00pm 13.0 8.0 9.6 80 1.8 S 26 35 14 19 1020.6 1019.8 0.0
13/06:30pm 13.4 8.5 10.0 80 1.8 S 26 33 14 18 1020.5 1019.7 0.0
13/06:00pm 14.7 10.3 10.3 75 2.3 S 24 32 13 17 1020.4 1019.6 0.0
13/05:30pm 14.1 10.1 10.5 79 1.9 S 22 32 12 17 1020.4 1019.6 0.0
13/05:00pm 15.9 12.3 10.4 70 3.0 S 20 26 11 14 1020.8 1020.0 0.0
13/04:30pm 15.0 11.5 10.2 73 2.5 S 19 24 10 13 1020.9 1020.1 0.0
13/04:00pm 15.8 12.1 10.3 70 2.9 S 20 26 11 14 1020.9 1020.1 0.0
13/03:30pm 16.5 12.9 10.4 67 3.3 S 20 30 11 16 1021.2 1020.4 0.0
13/03:00pm 16.4 12.9 10.3 67 3.3 SSE 19 26 10 14 1021.4 1020.6 0.0
13/02:30pm 15.7 12.1 10.0 69 3.0 S 19 32 10 17 1021.5 1020.7 0.0
13/02:00pm 16.2 12.7 10.1 67 3.3 SSE 19 26 10 14 1021.5 1020.7 0.0
13/01:30pm 16.6 13.4 9.8 64 3.6 S 17 24 9 13 1021.6 1020.8 0.0
13/01:00pm 16.0 13.5 9.7 66 3.3 SSW 13 22 7 12 1021.6 1020.8 0.0
13/12:30pm 16.2 14.0 9.4 64 3.6 S 11 19 6 10 1021.7 1020.9 0.0
13/12:00pm 15.8 13.7 9.7 67 3.2 S 11 19 6 10 1021.9 1021.1 0.0
13/11:30am 15.4 12.7 8.9 65 3.4 S 13 19 7 10 1022.0 1021.3 0.0
13/11:00am 14.8 12.8 8.5 66 3.2 SSW 9 17 5 9 1022.3 1021.6 0.0
13/10:30am 14.7 13.0 9.7 72 2.6 S 9 15 5 8 1022.4 1021.7 0.0
13/10:00am 13.3 11.8 9.0 75 2.2 S 7 11 4 6 1022.5 1021.8 0.0
13/09:30am 12.6 10.7 9.1 79 1.8 SW 9 13 5 7 1022.4 1021.7 0.0
13/09:00am 12.1 9.8 8.9 81 1.6 SSW 11 20 6 11 1022.6 1021.9 0.0
13/08:30am 12.0 9.9 8.3 78 1.9 SW 9 15 5 8 1022.5 1021.8 0.0
13/08:00am 11.8 10.0 8.1 78 1.8 SSW 7 13 4 7 1022.4 1021.7 0.0
13/07:30am 11.5 9.3 7.8 78 1.8 SW 9 13 5 7 1022.2 1021.5 0.0
13/07:00am 11.1 9.0 8.1 82 1.5 SW 9 15 5 8 1022.0 1021.3 0.0
13/06:30am 11.2 9.4 8.1 81 1.5 SSW 7 11 4 6 1021.9 1021.1 0.0
13/06:00am 11.2 9.6 8.2 82 1.5 S 6 9 3 5 1021.7 1020.9 0.0
13/05:30am 11.2 9.1 8.1 81 1.5 SSW 9 13 5 7 1021.5 1020.7 0.0
13/05:00am 11.2 9.1 8.1 81 1.5 S 9 15 5 8 1021.5 1020.7 0.0
13/04:30am 11.2 8.3 8.2 82 1.5 S 13 17 7 9 1021.4 1020.6 0.0
13/04:00am 11.3 8.0 8.2 81 1.5 S 15 24 8 13 1021.6 1020.8 0.0
13/03:30am 11.3 8.2 8.9 85 1.2 S 15 20 8 11 1021.6 1020.8 0.0
13/03:00am 11.4 7.8 8.3 81 1.5 S 17 22 9 12 1021.8 1021.0 0.0
13/02:30am 11.4 7.5 8.6 83 1.4 S 19 24 10 13 1021.9 1021.1 0.0
13/02:00am 11.5 7.3 8.4 81 1.6 S 20 32 11 17 1022.4 1021.7 0.0
13/01:30am 11.7 7.6 8.6 81 1.6 S 20 26 11 14 1022.4 1021.7 0.0
13/01:00am 11.6 7.1 8.5 81 1.6 S 22 32 12 17 1022.7 1022.0 0.0
13/12:30am 11.5 6.9 8.2 80 1.6 S 22 32 12 17 1023.0 1022.3 0.0
13/12:00am 11.6 6.3 8.5 81 1.6 SSE 26 33 14 18 1023.3 1022.6 0.0
 
Date/Time
CDT
Temp
°C
App
Temp
°C
Dew
Point
°C
Rel
Hum
%
Delta-T
°C
Wind Press
QNH
hPa
Press
MSL
hPa
Rain since
9am
mm
Dir  Spd
km/h
Gust
km/h
Spd
kts
Gust
kts
12/11:30pm 11.7 6.9 8.7 82 1.5 SSE 24 33 13 18 1023.5 1022.7 0.0
12/11:00pm 11.8 6.7 9.2 84 1.3 S 26 35 14 19 1023.7 1022.9 0.0
12/10:30pm 11.8 6.1 8.5 80 1.7 S 28 35 15 19 1023.7 1022.9 0.0
12/10:00pm 11.7 6.8 8.6 81 1.6 SSE 24 35 13 19 1023.6 1022.8 0.0
12/09:30pm 11.6 7.4 8.3 80 1.6 SSE 20 30 11 16 1023.5 1022.7 0.0
12/09:00pm 11.6 7.4 8.1 79 1.7 S 20 33 11 18 1023.5 1022.7 0.0
12/08:30pm 12.0 7.0 9.6 85 1.2 SSE 26 33 14 18 1023.5 1022.7 0.0
12/08:00pm 12.0 7.9 8.8 81 1.6 SSE 20 28 11 15 1023.1 1022.4 0.0
12/07:30pm 12.2 6.9 8.5 78 1.9 S 26 35 14 19 1023.1 1022.4 0.0
12/07:00pm 12.9 7.6 8.4 74 2.3 S 26 33 14 18 1022.7 1022.0 0.0
12/06:30pm 13.3 7.6 8.2 71 2.6 SSE 28 39 15 21 1022.5 1021.8 0.0
12/06:00pm 13.4 8.2 8.9 74 2.3 S 26 39 14 21 1022.4 1021.7 0.0
12/05:30pm 13.4 8.8 9.8 79 1.9 S 24 35 13 19 1022.6 1021.9 0.0
12/05:00pm 13.9 9.4 8.5 70 2.8 S 22 32 12 17 1022.6 1021.9 0.0
12/04:30pm 14.8 10.1 9.4 70 2.8 S 24 35 13 19 1022.7 1022.0 0.0
12/04:00pm 14.4 8.7 9.8 74 2.4 SSE 30 37 16 20 1022.5 1021.8 0.0
12/03:30pm 15.1 10.5 9.7 70 2.8 SSE 24 32 13 17 1022.7 1022.0 0.0
12/03:00pm 14.2 8.2 8.6 69 2.9 SSE 30 39 16 21 1022.4 1021.7 0.0
12/02:30pm 14.7 9.2 9.3 70 2.8 SSE 28 35 15 19 1022.6 1021.9 0.0
12/02:00pm 14.3 8.5 9.3 72 2.6 SSE 30 39 16 21 1022.5 1021.8 0.0
12/01:30pm 14.5 9.3 8.9 69 2.9 SSE 26 35 14 19 1022.5 1021.8 0.0
12/01:00pm 13.7 7.8 9.0 73 2.4 SSE 30 35 16 19 1022.7 1022.0 0.0
12/12:30pm 14.1 9.2 9.9 76 2.2 SSE 26 37 14 20 1022.9 1022.2 0.0
12/12:00pm 14.2 9.1 9.2 72 2.6 S 26 39 14 21 1023.1 1022.4 0.0
12/11:30am 13.5 7.7 9.4 76 2.1 S 30 39 16 21 1023.1 1022.4 0.0
12/11:00am 12.8 7.2 8.7 76 2.1 S 28 39 15 21 1023.0 1022.3 0.0
12/10:30am 12.9 7.0 9.0 77 2.0 SSE 30 37 16 20 1022.8 1022.1 0.0
12/10:00am 12.8 8.1 9.3 79 1.8 S 24 33 13 18 1022.9 1022.2 0.0
12/09:30am 12.5 7.0 9.0 79 1.8 S 28 37 15 20 1022.9 1022.2 0.0
12/09:00am 13.4 7.6 9.5 77 2.0 S 30 37 16 20 1022.7 1022.0 0.0
12/08:30am 13.2 7.7 9.1 76 2.1 S 28 37 15 20 1022.2 1021.5 0.0
12/08:00am 12.7 7.9 9.0 78 1.9 S 24 33 13 18 1022.1 1021.4 0.0
12/07:30am 12.4 7.8 9.6 83 1.4 S 24 30 13 16 1022.0 1021.3 0.0
12/07:00am 11.7 7.3 9.1 84 1.3 S 22 32 12 17 1021.7 1020.9 0.0
12/06:30am 11.3 7.7 9.9 91 0.7 S 19 28 10 15 1021.0 1020.2 0.0
12/06:00am 11.9 7.7 11.0 94 0.5 SSE 24 33 13 18 1020.9 1020.1 0.0
12/05:30am 11.8 7.6 11.0 95 0.4 S 24 35 13 19 1020.8 1020.0 0.0
12/05:00am 12.1 7.2 11.3 95 0.4 S 28 41 15 22 1020.5 1019.7 0.0
12/04:30am 12.4 8.0 11.8 96 0.3 S 26 33 14 18 1020.2 1019.5 0.0
12/04:00am 12.1 7.2 11.3 95 0.4 S 28 33 15 18 1020.4 1019.6 0.0
12/03:30am 12.3 6.5 11.4 94 0.5 S 33 41 18 22 1020.6 1019.8 0.0
12/03:00am 12.4 6.5 11.0 91 0.7 S 33 43 18 23 1020.6 1019.8 0.0
12/02:30am 12.3 5.9 10.7 90 0.8 S 35 44 19 24 1020.8 1020.0 0.0
12/02:00am 12.1 6.3 10.7 91 0.7 S 32 43 17 23 1021.0 1020.2 0.0
12/01:30am 11.6 7.5 10.2 91 0.7 SSE 22 32 12 17 1021.4 1020.6 0.0
12/01:00am 12.2 7.2 11.1 93 0.6 SSE 28 33 15 18 1021.5 1020.7 0.0
12/12:30am 12.3 7.7 10.9 91 0.7 SSE 26 33 14 18 1021.8 1021.0 0.0
12/12:00am 12.3 6.9 10.9 91 0.7 S 30 37 16 20 1022.0 1021.3 0.0
 
Date/Time
CDT
Temp
°C
App
Temp
°C
Dew
Point
°C
Rel
Hum
%
Delta-T
°C
Wind Press
QNH
hPa
Press
MSL
hPa
Rain since
9am
mm
Dir  Spd
km/h
Gust
km/h
Spd
kts
Gust
kts
11/11:30pm 12.2 6.8 10.9 92 0.7 SSE 30 43 16 23 1021.9 1021.1 0.0
11/11:00pm 12.1 5.7 10.7 91 0.7 S 35 46 19 25 1021.9 1021.1 0.0
11/10:30pm 12.0 6.1 10.6 91 0.7 SSE 32 39 17 21 1021.9 1021.1 0.0
11/10:00pm 11.8 5.9 10.4 91 0.7 S 32 39 17 21 1021.6 1020.8 0.0
11/09:30pm 11.6 6.0 10.2 91 0.7 S 30 39 16 21 1021.4 1020.6 0.0
11/09:00pm 11.8 6.2 10.2 90 0.8 SSE 30 39 16 21 1021.2 1020.4 0.0
11/08:30pm 11.8 6.1 9.9 88 1.0 S 30 39 16 21 1021.3 1020.5 0.0
11/08:00pm 11.7 6.4 9.8 88 1.0 S 28 39 15 21 1021.1 1020.3 0.0
11/07:30pm 11.5 6.8 9.4 87 1.1 SSE 24 33 13 18 1020.9 1020.1 0.0
11/07:00pm 12.1 7.1 9.7 85 1.2 SSE 26 37 14 20 1020.7 1019.9 0.0
11/06:30pm 12.9 7.9 9.7 81 1.7 SSE 26 35 14 19 1020.4 1019.6 0.0
11/06:00pm 13.2 7.4 9.5 78 1.9 SSE 30 35 16 19 1020.1 1019.4 0.0
11/05:30pm 13.5 7.7 9.4 76 2.1 SSE 30 37 16 20 1020.2 1019.5 0.0
11/05:00pm 13.5 8.0 9.2 75 2.2 SSE 28 39 15 21 1020.4 1019.6 0.0
11/04:30pm 14.0 9.1 10.0 77 2.1 SSE 26 37 14 20 1020.6 1019.8 0.0
11/04:00pm 14.8 9.2 10.0 73 2.5 S 30 39 16 21 1020.6 1019.8 0.0
11/03:30pm 14.5 8.6 8.9 69 2.9 SSE 30 37 16 20 1020.7 1019.9 0.0
11/03:00pm 14.1 8.0 9.9 76 2.2 SSE 32 41 17 22 1020.8 1020.0 0.0
11/02:30pm 14.5 9.0 9.3 71 2.7 SSE 28 39 15 21 1021.1 1020.3 0.0
11/02:00pm 14.1 8.7 9.5 74 2.4 SSE 28 37 15 20 1021.0 1020.2 0.0
11/01:30pm 14.1 8.2 9.1 72 2.6 SSE 30 39 16 21 1020.9 1020.1 0.0
11/01:00pm 14.1 8.6 9.3 73 2.5 SSE 28 37 15 20 1021.1 1020.3 0.0
11/12:30pm 14.2 8.8 9.4 73 2.5 SSE 28 41 15 22 1021.0 1020.2 0.0
11/12:00pm 14.0 8.5 9.2 73 2.5 SSE 28 39 15 21 1020.9 1020.1 0.0
11/11:30am 14.7 9.2 9.3 70 2.8 SSE 28 37 15 20 1020.7 1019.9 0.0
11/11:00am 14.3 8.9 9.5 73 2.5 SSE 28 35 15 19 1020.6 1019.8 0.0
11/10:30am 14.5 8.7 9.5 72 2.6 SSE 30 39 16 21 1020.5 1019.7 0.0
11/10:00am 13.9 7.6 9.1 73 2.5 SSE 32 43 17 23 1020.5 1019.7 0.0
11/09:30am 13.1 7.1 8.6 74 2.3 SSE 30 37 16 20 1020.7 1019.9 0.0
11/09:00am 13.4 7.9 9.1 75 2.2 SSE 28 37 15 20 1020.8 1020.0 0.0
11/08:30am 12.9 7.8 9.2 78 1.9 SSE 26 35 14 19 1020.5 1019.7 0.0
11/08:00am 12.4 7.8 9.6 83 1.4 SSE 24 35 13 19 1020.4 1019.6 0.0
11/07:30am 11.6 5.8 9.3 86 1.2 SSE 30 41 16 22 1020.0 1019.3 0.0
11/07:00am 11.4 6.0 9.5 88 1.0 SSE 28 35 15 19 1019.6 1018.9 0.0
11/06:30am 10.9 6.1 8.8 87 1.1 SSE 24 33 13 18 1019.4 1018.7 0.0
11/06:00am 10.9 6.5 9.0 88 1.0 SE 22 30 12 16 1019.2 1018.4 0.0
11/05:30am 11.0 6.3 9.1 88 1.0 SE 24 32 13 17 1019.1 1018.3 0.0
11/05:00am 10.9 7.0 9.3 90 0.8 SSE 20 28 11 15 1019.1 1018.3 0.0
11/04:30am 10.9 6.5 9.0 88 1.0 SE 22 32 12 17 1019.2 1018.4 0.0
11/04:00am 10.8 6.1 9.1 89 0.9 SSE 24 32 13 17 1019.2 1018.4 0.0
11/03:30am 10.9 5.8 9.3 90 0.8 SSE 26 33 14 18 1019.3 1018.5 0.0
11/03:00am 11.1 6.5 9.7 91 0.7 SE 24 32 13 17 1019.3 1018.5 0.0
11/02:30am 11.0 6.0 9.4 90 0.8 SSE 26 32 14 17 1019.5 1018.8 0.0
11/02:00am 11.1 6.5 9.7 91 0.7 SE 24 33 13 18 1019.7 1019.0 0.0
11/01:30am 11.1 6.5 9.7 91 0.7 SSE 24 33 13 18 1020.0 1019.3 0.0
11/01:00am 10.9 6.2 9.3 90 0.8 SSE 24 30 13 16 1020.1 1019.4 0.0
11/12:30am 10.8 5.7 9.1 89 0.9 SSE 26 33 14 18 1020.4 1019.6 0.0
11/12:00am 10.8 5.3 9.2 90 0.8 SSE 28 37 15 20 1020.4 1019.6 0.0
 
Date/Time
CDT
Temp
°C
App
Temp
°C
Dew
Point
°C
Rel
Hum
%
Delta-T
°C
Wind Press
QNH
hPa
Press
MSL
hPa
Rain since
9am
mm
Dir  Spd
km/h
Gust
km/h
Spd
kts
Gust
kts
10/11:30pm 10.9 5.4 9.3 90 0.8 SSE 28 35 15 19 1020.8 1020.0 0.0
10/11:00pm 10.7 4.8 9.0 89 0.9 SSE 30 39 16 21 1020.9 1020.1 0.0
10/10:30pm 10.6 5.4 8.9 89 0.9 SSE 26 33 14 18 1021.2 1020.4 0.0
10/10:00pm 10.6 4.9 8.5 87 1.0 SSE 28 35 15 19 1021.2 1020.4 0.0
10/09:30pm 10.9 4.9 8.7 86 1.1 SSE 30 41 16 22 1021.0 1020.2 0.0

Latest Capital City Observations: Canberra | Sydney | Melbourne | Brisbane | Adelaide | Perth | Hobart | Darwin

Other formats

Comma delimited format used in spreadsheet applications
http://www.bom.gov.au/fwo/IDS60901/IDS60901.94811.axf

JavaScript Object Notation format (JSON) in row-major order
http://www.bom.gov.au/fwo/IDS60901/IDS60901.94811.json

Data quality

Most of these data are generated automatically and are frequently updated. Quality checks on data are not normally performed. It is possible for incorrect values to appear. Refer to information at About Latest Weather Observations and please check the disclaimer before using these data.